Time;durP1;ratioP1;P1;durP2;ratioP2;P2;SDS_P1;SDS_P2;PMS_P1;PMS_P2;Temp;Humidity;BMP_temperature;BMP_pressure;BME280_temperature;BME280_humidity;BME280_pressure;Samples;Min_cycle;Max_cycle;Signal;HPM_P1;HPM_P2
2024/01/30 00:02:19;;;;;;;9.70;7.60;;;8.50;89.50;;;;;;5071422;28;20113;-34
2024/01/30 00:04:45;;;;;;;9.40;7.25;;;8.50;89.60;;;;;;5072849;28;20032;-38
2024/01/30 00:07:11;;;;;;;9.73;7.43;;;8.50;89.60;;;;;;5072871;28;20020;-36
2024/01/30 00:09:38;;;;;;;10.50;7.20;;;8.40;89.60;;;;;;5072924;28;20025;-34
2024/01/30 00:12:04;;;;;;;11.57;7.53;;;8.40;89.60;;;;;;5072851;28;20423;-39
2024/01/30 00:14:30;;;;;;;9.43;7.13;;;8.40;89.70;;;;;;5072703;28;20093;-38
2024/01/30 00:16:55;;;;;;;13.48;7.70;;;8.40;89.70;;;;;;5072699;28;20033;-37
2024/01/30 00:19:21;;;;;;;10.57;7.53;;;8.40;89.80;;;;;;5072771;28;20031;-36
2024/01/30 00:21:47;;;;;;;10.02;7.00;;;8.30;89.80;;;;;;5071285;28;20024;-35
2024/01/30 00:24:12;;;;;;;11.00;7.10;;;8.40;89.80;;;;;;5072586;28;20028;-37
2024/01/30 00:26:38;;;;;;;10.13;7.05;;;8.30;89.70;;;;;;5072491;28;20043;-39
2024/01/30 00:29:04;;;;;;;10.57;7.57;;;8.30;89.80;;;;;;5072600;28;20051;-34
2024/01/30 00:31:29;;;;;;;9.93;7.28;;;8.30;89.90;;;;;;5072759;28;20016;-37
2024/01/30 00:33:55;;;;;;;10.20;7.45;;;8.30;89.90;;;;;;5072288;28;20020;-35
2024/01/30 00:36:20;;;;;;;10.00;6.78;;;8.20;89.90;;;;;;5071058;28;20073;-36
2024/01/30 00:38:46;;;;;;;9.60;7.03;;;8.20;89.90;;;;;;5072374;28;20103;-35
2024/01/30 00:41:11;;;;;;;10.13;6.97;;;8.20;89.90;;;;;;5072481;28;20496;-35
2024/01/30 00:43:37;;;;;;;11.27;7.53;;;8.20;89.90;;;;;;5072293;28;20031;-36
2024/01/30 00:46:03;;;;;;;9.57;6.65;;;8.20;90.00;;;;;;5071933;28;20036;-35
2024/01/30 00:48:29;;;;;;;9.73;6.47;;;8.20;90.00;;;;;;5072616;28;20049;-35
2024/01/30 00:50:54;;;;;;;9.77;6.78;;;8.10;90.00;;;;;;5072074;28;20028;-36
2024/01/30 00:53:20;;;;;;;10.02;7.22;;;8.10;90.00;;;;;;5072396;28;20013;-32
2024/01/30 00:55:46;;;;;;;10.25;6.75;;;8.10;90.00;;;;;;5072007;28;20107;-36
2024/01/30 00:58:11;;;;;;;10.57;6.88;;;8.10;90.00;;;;;;5072079;28;20025;-36
2024/01/30 01:00:37;;;;;;;8.85;6.82;;;8.10;90.00;;;;;;5072104;28;20408;-38
2024/01/30 01:03:03;;;;;;;10.00;6.90;;;8.10;90.00;;;;;;5072144;28;20074;-34
2024/01/30 01:05:28;;;;;;;10.02;6.63;;;8.10;90.00;;;;;;5071745;28;20108;-37
2024/01/30 01:07:54;;;;;;;9.88;7.07;;;8.10;90.00;;;;;;5071982;28;20020;-36
2024/01/30 01:10:19;;;;;;;10.38;7.45;;;8.00;90.00;;;;;;5072000;28;20016;-38
2024/01/30 01:12:46;;;;;;;9.07;6.88;;;8.00;90.10;;;;;;5071685;28;20020;-35
2024/01/30 01:15:11;;;;;;;9.30;6.75;;;8.00;90.10;;;;;;5072120;28;20422;-31
2024/01/30 01:17:38;;;;;;;9.40;6.70;;;8.00;90.10;;;;;;5072022;28;20020;-36
2024/01/30 01:20:07;;;;;;;9.50;6.78;;;8.00;90.10;;;;;;5072071;28;20020;-34
2024/01/30 01:22:34;;;;;;;10.73;6.85;;;7.90;90.10;;;;;;5070483;28;20029;-36
2024/01/30 01:25:00;;;;;;;8.77;6.97;;;7.90;90.10;;;;;;5071949;28;20067;-38
2024/01/30 01:27:26;;;;;;;9.35;7.10;;;7.90;90.10;;;;;;5071602;28;20062;-40
2024/01/30 01:29:52;;;;;;;10.50;6.55;;;7.90;90.10;;;;;;5071807;28;20044;-33
2024/01/30 01:32:18;;;;;;;9.00;6.28;;;7.80;90.20;;;;;;5053680;28;20031;-36
2024/01/30 01:34:43;;;;;;;9.00;6.40;;;7.80;90.20;;;;;;5071371;28;20493;-34
2024/01/30 01:37:09;;;;;;;7.50;6.15;;;7.80;90.20;;;;;;5071720;28;20060;-37
2024/01/30 01:39:35;;;;;;;9.07;7.10;;;7.80;90.20;;;;;;5071609;28;20028;-35
2024/01/30 01:42:00;;;;;;;10.00;6.47;;;7.80;90.20;;;;;;5071496;28;20063;-32
2024/01/30 01:44:27;;;;;;;10.10;6.70;;;7.80;90.20;;;;;;5070032;28;20112;-35
2024/01/30 01:46:53;;;;;;;10.32;7.22;;;7.80;90.20;;;;;;5071300;28;20032;-35
2024/01/30 01:49:19;;;;;;;10.52;6.85;;;7.80;90.20;;;;;;5071752;28;20492;-34
2024/01/30 01:51:47;;;;;;;8.65;6.07;;;7.80;90.20;;;;;;5071480;28;20028;-37
2024/01/30 01:54:14;;;;;;;8.90;6.57;;;7.70;90.20;;;;;;5071765;28;20509;-35
2024/01/30 01:56:40;;;;;;;9.27;6.97;;;7.70;90.20;;;;;;5071645;28;20056;-33
2024/01/30 01:59:07;;;;;;;8.80;6.75;;;7.70;90.30;;;;;;5074083;28;20035;-37
2024/01/30 02:01:34;;;;;;;8.50;6.63;;;7.70;90.20;;;;;;5075049;28;20082;-35
2024/01/30 02:04:00;;;;;;;11.05;6.65;;;7.60;90.30;;;;;;5074346;28;20020;-34
2024/01/30 02:06:27;;;;;;;8.40;6.15;;;7.70;90.30;;;;;;5075350;28;20013;-34
2024/01/30 02:08:53;;;;;;;8.55;6.32;;;7.70;90.30;;;;;;5075439;28;20024;-34
2024/01/30 02:11:20;;;;;;;10.00;6.47;;;7.70;90.30;;;;;;5075781;28;20024;-35
2024/01/30 02:13:45;;;;;;;10.63;7.00;;;7.70;90.30;;;;;;5075126;28;20050;-37
2024/01/30 02:16:11;;;;;;;10.55;6.88;;;7.70;90.20;;;;;;5075228;28;20103;-37
2024/01/30 02:18:41;;;;;;;8.73;6.70;;;7.80;90.20;;;;;;5074975;28;20032;-31
2024/01/30 02:21:07;;;;;;;8.77;6.60;;;7.80;90.20;;;;;;5075408;28;20025;-38
2024/01/30 02:23:34;;;;;;;8.02;6.55;;;7.80;90.20;;;;;;5074909;28;20036;-32
2024/01/30 02:26:00;;;;;;;8.27;6.60;;;7.80;90.20;;;;;;5075381;28;20473;-40
2024/01/30 02:28:26;;;;;;;9.60;7.18;;;7.70;90.20;;;;;;5075085;28;20039;-37
2024/01/30 02:30:51;;;;;;;8.15;6.35;;;7.70;90.20;;;;;;5074911;28;20036;-31
2024/01/30 02:33:17;;;;;;;8.10;6.82;;;7.70;90.20;;;;;;5074833;28;20027;-35
2024/01/30 02:35:42;;;;;;;8.30;6.40;;;7.70;90.20;;;;;;5074777;28;20504;-33
2024/01/30 02:38:08;;;;;;;9.63;7.10;;;7.70;90.30;;;;;;5074815;28;20028;-34
2024/01/30 02:40:34;;;;;;;9.23;6.68;;;7.70;90.30;;;;;;5074669;28;20040;-33
2024/01/30 02:43:01;;;;;;;10.32;6.80;;;7.70;90.30;;;;;;5074591;28;20048;-31
2024/01/30 02:45:27;;;;;;;11.27;7.20;;;7.70;90.30;;;;;;5074490;28;20021;-34
2024/01/30 02:47:52;;;;;;;10.15;7.32;;;7.70;90.30;;;;;;5073239;28;20504;-31
2024/01/30 02:50:18;;;;;;;10.18;6.63;;;7.70;90.30;;;;;;5074635;28;20101;-36
2024/01/30 02:52:43;;;;;;;9.50;7.15;;;7.70;90.30;;;;;;5073230;28;20023;-36
2024/01/30 02:55:09;;;;;;;8.15;6.65;;;7.80;90.30;;;;;;5074453;28;20029;-35
2024/01/30 02:57:35;;;;;;;10.20;6.93;;;7.80;90.30;;;;;;5074490;28;20086;-35
2024/01/30 03:00:01;;;;;;;8.45;6.50;;;7.80;90.30;;;;;;5074481;28;20032;-32
2024/01/30 03:02:27;;;;;;;10.73;6.65;;;7.90;90.20;;;;;;5074536;28;20027;-36
2024/01/30 03:04:52;;;;;;;8.13;6.20;;;7.80;90.20;;;;;;5072902;28;20491;-38
2024/01/30 03:07:18;;;;;;;8.23;6.35;;;7.90;90.20;;;;;;5074325;28;20461;-36
2024/01/30 03:09:44;;;;;;;8.63;6.63;;;7.90;90.20;;;;;;5074021;28;20020;-38
2024/01/30 03:12:09;;;;;;;7.70;5.55;;;7.90;90.20;;;;;;5074088;28;20016;-33
2024/01/30 03:14:35;;;;;;;9.60;6.90;;;7.90;90.30;;;;;;5073910;28;20099;-36
2024/01/30 03:17:01;;;;;;;9.23;6.78;;;7.90;90.20;;;;;;5074055;28;20546;-34
2024/01/30 03:19:26;;;;;;;8.15;6.38;;;7.90;90.20;;;;;;5072648;28;20036;-37
2024/01/30 03:21:52;;;;;;;7.82;6.45;;;7.90;90.20;;;;;;5074063;28;20150;-35
2024/01/30 03:24:17;;;;;;;9.18;6.50;;;7.90;90.20;;;;;;5073988;28;20031;-32
2024/01/30 03:26:43;;;;;;;9.73;6.35;;;7.90;90.20;;;;;;5073784;28;20540;-33
2024/01/30 03:29:09;;;;;;;10.27;7.15;;;7.90;90.10;;;;;;5072744;28;20027;-33
2024/01/30 03:31:35;;;;;;;9.15;6.43;;;7.90;90.10;;;;;;5073962;28;20154;-31
2024/01/30 03:34:01;;;;;;;9.95;6.47;;;7.90;90.10;;;;;;5073673;28;20105;-39
2024/01/30 03:36:27;;;;;;;10.20;6.35;;;7.80;90.10;;;;;;5073802;28;20416;-37
2024/01/30 03:38:53;;;;;;;9.25;6.90;;;7.80;90.20;;;;;;5073997;28;20377;-32
2024/01/30 03:41:18;;;;;;;10.18;7.15;;;7.80;90.20;;;;;;5073795;28;20026;-35
2024/01/30 03:43:44;;;;;;;8.35;6.15;;;7.80;90.20;;;;;;5073795;28;20075;-37
2024/01/30 03:46:12;;;;;;;7.68;6.18;;;7.80;90.20;;;;;;5073807;28;20017;-33
2024/01/30 03:48:37;;;;;;;7.80;6.15;;;7.80;90.20;;;;;;5073616;28;20009;-33
2024/01/30 03:51:03;;;;;;;6.90;6.10;;;7.80;90.20;;;;;;5073450;28;20436;-36
2024/01/30 03:53:29;;;;;;;8.65;6.35;;;7.80;90.20;;;;;;5073409;28;20520;-34
2024/01/30 03:55:55;;;;;;;8.98;6.40;;;7.80;90.10;;;;;;5073751;28;20067;-36
2024/01/30 03:58:20;;;;;;;7.93;6.55;;;7.80;90.20;;;;;;5073487;28;20089;-39
2024/01/30 04:00:46;;;;;;;8.38;6.18;;;7.90;90.20;;;;;;5073566;28;20078;-34
2024/01/30 04:03:11;;;;;;;10.23;6.47;;;7.90;90.20;;;;;;5071899;28;20021;-36
2024/01/30 04:05:37;;;;;;;10.05;6.25;;;7.90;90.20;;;;;;5072998;28;20037;-36
2024/01/30 04:08:02;;;;;;;10.18;6.03;;;7.80;90.10;;;;;;5071987;28;20082;-37
2024/01/30 04:10:28;;;;;;;8.88;6.13;;;7.90;90.10;;;;;;5072890;28;20017;-35
2024/01/30 04:12:54;;;;;;;7.57;5.90;;;7.90;90.10;;;;;;5072936;28;20025;-32
2024/01/30 04:15:19;;;;;;;8.10;6.22;;;7.90;90.10;;;;;;5073268;28;20021;-36
2024/01/30 04:17:45;;;;;;;9.07;6.13;;;7.90;90.10;;;;;;5073073;28;20035;-37
2024/01/30 04:20:16;;;;;;;8.80;6.50;;;7.90;90.10;;;;;;5072602;28;20031;-37
2024/01/30 04:22:44;;;;;;;8.10;6.13;;;8.00;90.10;;;;;;5072407;28;20033;-36
2024/01/30 04:25:10;;;;;;;8.40;5.68;;;8.00;90.00;;;;;;5073049;28;20024;-37
2024/01/30 04:27:35;;;;;;;8.70;6.38;;;7.90;90.00;;;;;;5072734;28;20107;-33
2024/01/30 04:30:01;;;;;;;10.35;6.35;;;7.90;90.00;;;;;;5073021;28;20021;-34
2024/01/30 04:32:26;;;;;;;9.15;6.50;;;7.90;90.10;;;;;;5071370;28;20013;-36
2024/01/30 04:34:52;;;;;;;9.10;6.63;;;7.90;90.00;;;;;;5072642;28;20140;-37
2024/01/30 04:37:17;;;;;;;8.38;6.15;;;8.00;90.00;;;;;;5072758;28;20428;-36
2024/01/30 04:39:43;;;;;;;7.93;6.40;;;8.00;90.00;;;;;;5072408;28;20051;-34
2024/01/30 04:42:08;;;;;;;8.48;6.30;;;8.00;90.00;;;;;;5072339;28;20024;-38
2024/01/30 04:44:34;;;;;;;8.60;6.20;;;7.90;90.00;;;;;;5072554;28;20028;-36
2024/01/30 04:47:01;;;;;;;8.13;6.47;;;7.90;90.00;;;;;;5072823;28;20100;-35
2024/01/30 04:49:27;;;;;;;9.63;6.50;;;7.90;90.00;;;;;;5072761;28;20029;-36
2024/01/30 04:51:53;;;;;;;8.98;6.10;;;7.90;90.00;;;;;;5072249;28;20060;-33
2024/01/30 04:54:18;;;;;;;7.75;5.95;;;7.90;90.00;;;;;;5072476;28;20052;-34
2024/01/30 04:56:44;;;;;;;8.35;6.20;;;7.90;90.00;;;;;;5072171;28;20020;-38
2024/01/30 04:59:09;;;;;;;9.05;6.82;;;7.90;90.00;;;;;;5072282;28;20029;-37
2024/01/30 05:01:35;;;;;;;8.88;6.68;;;7.90;90.00;;;;;;5071957;28;20062;-34
2024/01/30 05:04:01;;;;;;;8.40;6.38;;;7.90;90.00;;;;;;5070626;28;20056;-36
2024/01/30 05:06:27;;;;;;;9.02;6.15;;;7.90;90.00;;;;;;5071933;28;20504;-37
2024/01/30 05:08:53;;;;;;;8.90;6.25;;;7.90;90.00;;;;;;5072175;28;20072;-36
2024/01/30 05:11:18;;;;;;;8.43;6.53;;;8.00;90.10;;;;;;5072447;28;20020;-31
2024/01/30 05:13:44;;;;;;;8.18;6.60;;;8.00;90.10;;;;;;5072176;28;20056;-32
2024/01/30 05:16:09;;;;;;;8.25;6.32;;;8.00;90.10;;;;;;5072086;28;20104;-35
2024/01/30 05:18:35;;;;;;;8.45;5.93;;;8.00;90.10;;;;;;5071899;28;20067;-32
2024/01/30 05:21:01;;;;;;;7.97;6.00;;;8.00;90.10;;;;;;5071945;28;20468;-32
2024/01/30 05:23:27;;;;;;;8.52;6.50;;;8.10;90.10;;;;;;5072162;28;20024;-33
2024/01/30 05:25:53;;;;;;;9.02;6.13;;;8.10;90.10;;;;;;5071748;28;20090;-33
2024/01/30 05:28:18;;;;;;;8.65;6.68;;;8.10;90.00;;;;;;5071918;28;20048;-36
2024/01/30 05:30:44;;;;;;;8.65;6.30;;;8.10;90.00;;;;;;5071978;28;20385;-35
2024/01/30 05:33:11;;;;;;;11.50;6.57;;;8.20;90.00;;;;;;5071364;28;20028;-33
2024/01/30 05:35:37;;;;;;;9.85;6.28;;;8.20;90.00;;;;;;5071422;28;20045;-33
2024/01/30 05:38:03;;;;;;;7.75;5.88;;;8.20;90.00;;;;;;5071820;28;20032;-36
2024/01/30 05:40:29;;;;;;;7.57;5.82;;;8.20;90.00;;;;;;5071119;28;20481;-37
2024/01/30 05:42:54;;;;;;;8.13;5.93;;;8.20;90.00;;;;;;5071690;28;20063;-34
2024/01/30 05:45:20;;;;;;;7.85;6.13;;;8.30;90.00;;;;;;5070278;28;20032;-37
2024/01/30 05:47:45;;;;;;;7.22;5.63;;;8.30;90.00;;;;;;5070100;28;20013;-35
2024/01/30 05:50:11;;;;;;;9.05;6.22;;;8.30;90.00;;;;;;5071681;28;20127;-36
2024/01/30 05:52:36;;;;;;;6.53;5.53;;;8.30;90.00;;;;;;5071659;28;20028;-37
2024/01/30 05:55:03;;;;;;;9.88;6.25;;;8.30;90.00;;;;;;5071781;28;20501;-34
2024/01/30 05:57:28;;;;;;;8.10;6.30;;;8.30;89.90;;;;;;5071500;28;20516;-36
2024/01/30 05:59:54;;;;;;;8.35;6.22;;;8.30;90.00;;;;;;5071554;28;20024;-33
2024/01/30 06:02:19;;;;;;;8.45;6.60;;;8.40;90.00;;;;;;5071779;28;20020;-35
2024/01/30 06:04:45;;;;;;;7.65;6.00;;;8.40;90.00;;;;;;5071422;28;20028;-37
2024/01/30 06:07:10;;;;;;;10.43;6.22;;;8.40;90.00;;;;;;5071376;28;20377;-35
2024/01/30 06:09:36;;;;;;;8.57;6.13;;;8.50;90.00;;;;;;5071495;28;20052;-33
2024/01/30 06:12:02;;;;;;;10.43;6.85;;;8.50;89.90;;;;;;5071467;28;20020;-30
2024/01/30 06:14:27;;;;;;;8.30;6.53;;;8.50;89.90;;;;;;5071566;28;20024;-33
2024/01/30 06:16:53;;;;;;;9.32;6.40;;;8.60;90.00;;;;;;5071428;28;20094;-35
2024/01/30 06:19:18;;;;;;;8.85;5.80;;;8.60;90.00;;;;;;5071357;28;20112;-33
2024/01/30 06:21:45;;;;;;;8.00;5.88;;;8.60;89.90;;;;;;5071317;28;20054;-35
2024/01/30 06:24:10;;;;;;;8.20;5.95;;;8.70;89.90;;;;;;5070252;28;20052;-35
2024/01/30 06:26:36;;;;;;;8.48;5.88;;;8.70;89.90;;;;;;5071139;28;20036;-34
2024/01/30 06:29:02;;;;;;;7.20;5.60;;;8.70;89.80;;;;;;5071582;28;20096;-34
2024/01/30 06:31:27;;;;;;;10.55;6.25;;;8.70;89.80;;;;;;5071546;28;20422;-34
2024/01/30 06:33:53;;;;;;;7.50;5.50;;;8.70;89.80;;;;;;5070977;28;20027;-35
2024/01/30 06:36:18;;;;;;;8.48;5.47;;;8.70;89.80;;;;;;5071452;28;20019;-35
2024/01/30 06:38:44;;;;;;;7.97;5.60;;;8.70;89.90;;;;;;5071311;28;20479;-38
2024/01/30 06:41:09;;;;;;;9.18;6.10;;;8.80;89.90;;;;;;5071087;28;20419;-36
2024/01/30 06:43:35;;;;;;;7.72;5.75;;;8.90;89.90;;;;;;5070943;28;20024;-36
2024/01/30 06:46:01;;;;;;;7.00;5.50;;;8.90;89.90;;;;;;5074894;28;20070;-34
2024/01/30 06:48:26;;;;;;;8.40;5.03;;;9.00;89.80;;;;;;5074668;28;20025;-35
2024/01/30 06:50:56;;;;;;;7.30;5.00;;;9.00;89.80;;;;;;5074199;28;20032;-34
2024/01/30 06:53:22;;;;;;;7.63;5.22;;;9.10;89.80;;;;;;5074698;28;20028;-35
2024/01/30 06:55:47;;;;;;;10.25;5.15;;;9.10;89.70;;;;;;5074784;28;20065;-36
2024/01/30 06:58:13;;;;;;;7.40;5.03;;;9.10;89.70;;;;;;5074533;28;20032;-34
2024/01/30 07:00:39;;;;;;;6.55;4.97;;;9.20;89.70;;;;;;5074258;28;20028;-38
2024/01/30 07:03:04;;;;;;;8.05;5.13;;;9.20;89.70;;;;;;5072733;28;20431;-32
2024/01/30 07:05:30;;;;;;;5.95;4.93;;;9.20;89.70;;;;;;5074399;28;20480;-36
2024/01/30 07:07:55;;;;;;;7.60;5.45;;;9.30;89.70;;;;;;5074343;28;20524;-34
2024/01/30 07:10:21;;;;;;;6.95;4.90;;;9.30;89.70;;;;;;5074365;28;20017;-35
2024/01/30 07:12:47;;;;;;;6.93;5.00;;;9.30;89.60;;;;;;5074051;28;20020;-36
2024/01/30 07:15:16;;;;;;;9.15;4.95;;;9.30;89.60;;;;;;5074135;28;20024;-37
2024/01/30 07:17:42;;;;;;;6.40;4.65;;;9.40;89.70;;;;;;5072744;28;20150;-35
2024/01/30 07:20:09;;;;;;;6.20;4.82;;;9.40;89.70;;;;;;5074181;28;20100;-37
2024/01/30 07:22:34;;;;;;;7.32;4.80;;;9.40;89.70;;;;;;5074246;28;20116;-34
2024/01/30 07:25:00;;;;;;;6.88;4.60;;;9.40;89.60;;;;;;5073893;28;20104;-36
2024/01/30 07:27:26;;;;;;;9.85;4.90;;;9.50;89.70;;;;;;5072541;28;20078;-35
2024/01/30 07:29:51;;;;;;;8.32;5.50;;;9.50;89.60;;;;;;5073743;28;20032;-38
2024/01/30 07:32:18;;;;;;;8.52;5.65;;;9.50;89.60;;;;;;5073840;28;20017;-31
2024/01/30 07:34:44;;;;;;;7.30;5.45;;;9.50;89.60;;;;;;5073490;28;20072;-35
2024/01/30 07:37:12;;;;;;;8.13;5.57;;;9.60;89.60;;;;;;5073910;28;20174;-32
2024/01/30 07:39:38;;;;;;;6.57;4.93;;;9.60;89.60;;;;;;5073553;28;20059;-33
2024/01/30 07:42:04;;;;;;;6.85;4.95;;;9.60;90.10;;;;;;5073477;28;20053;-36
2024/01/30 07:44:29;;;;;;;6.60;4.78;;;9.60;89.60;;;;;;5073541;28;20021;-35
2024/01/30 07:46:55;;;;;;;8.40;5.32;;;9.60;89.60;;;;;;5073118;28;20021;-39
2024/01/30 07:49:20;;;;;;;7.05;4.80;;;9.60;89.50;;;;;;5073768;28;20040;-37
2024/01/30 07:51:46;;;;;;;5.90;4.45;;;9.70;89.60;;;;;;5073530;28;20070;-39
2024/01/30 07:54:14;;;;;;;8.88;5.10;;;9.70;89.60;;;;;;5072495;28;20021;-34
2024/01/30 07:56:40;;;;;;;6.65;4.60;;;9.70;89.60;;;;;;5071975;28;20031;-38
2024/01/30 07:59:10;;;;;;;5.93;4.43;;;9.70;89.60;;;;;;5072009;28;20020;-38
2024/01/30 08:01:35;;;;;;;5.78;4.90;;;9.80;89.60;;;;;;5072526;28;20024;-37
2024/01/30 08:04:01;;;;;;;7.70;4.68;;;9.80;89.60;;;;;;5072898;28;20116;-36
2024/01/30 08:06:26;;;;;;;7.45;4.60;;;9.80;89.50;;;;;;5072935;28;20020;-35
2024/01/30 08:08:53;;;;;;;6.78;4.43;;;9.80;89.50;;;;;;5072848;28;20027;-34
2024/01/30 08:11:20;;;;;;;7.45;5.20;;;9.90;89.50;;;;;;5073078;28;20017;-31
2024/01/30 08:13:46;;;;;;;7.03;4.82;;;9.90;89.50;;;;;;5073044;28;20013;-36
2024/01/30 08:16:11;;;;;;;7.47;4.95;;;9.90;89.50;;;;;;5072864;28;20027;-32
2024/01/30 08:18:37;;;;;;;7.57;4.90;;;9.90;89.50;;;;;;5072909;28;20103;-37
2024/01/30 08:21:03;;;;;;;7.78;5.38;;;10.00;89.50;;;;;;5072968;28;20435;-41
2024/01/30 08:23:28;;;;;;;8.60;4.43;;;10.10;89.40;;;;;;5072484;28;20044;-39
2024/01/30 08:25:54;;;;;;;6.60;4.80;;;10.10;89.40;;;;;;5072718;28;20105;-39
2024/01/30 08:28:19;;;;;;;6.32;4.65;;;10.10;89.40;;;;;;5072535;28;20020;-37
2024/01/30 08:30:45;;;;;;;6.43;4.80;;;10.20;89.30;;;;;;5072513;28;20095;-34
2024/01/30 08:33:11;;;;;;;8.98;5.32;;;10.20;89.30;;;;;;5072634;28;20416;-35
2024/01/30 08:35:36;;;;;;;6.40;4.57;;;10.20;89.30;;;;;;5072258;28;20439;-34
2024/01/30 08:38:03;;;;;;;5.47;4.60;;;10.20;89.20;;;;;;5072487;28;20024;-35
2024/01/30 08:40:29;;;;;;;6.53;4.50;;;10.30;89.20;;;;;;5072182;28;20062;-34
2024/01/30 08:42:55;;;;;;;6.35;4.55;;;10.40;89.20;;;;;;5071983;28;20029;-35
2024/01/30 08:45:20;;;;;;;7.20;4.80;;;10.40;89.70;;;;;;5072167;28;20025;-33
2024/01/30 08:47:46;;;;;;;5.60;4.13;;;10.40;89.10;;;;;;5072004;28;20028;-36
2024/01/30 08:50:12;;;;;;;7.25;4.72;;;10.50;89.10;;;;;;5072197;28;20024;-37
2024/01/30 08:52:37;;;;;;;8.00;4.85;;;10.50;89.10;;;;;;5071883;28;20412;-36
2024/01/30 08:55:04;;;;;;;6.25;5.00;;;10.50;89.00;;;;;;5072184;28;20037;-36
2024/01/30 08:57:30;;;;;;;9.15;4.88;;;10.50;88.90;;;;;;5072263;28;20544;-38
2024/01/30 08:59:56;;;;;;;6.50;5.10;;;10.60;89.00;;;;;;5072260;28;20108;-34
2024/01/30 09:02:21;;;;;;;6.78;4.47;;;10.60;89.60;;;;;;5071804;28;20370;-36
2024/01/30 09:04:47;;;;;;;6.43;4.97;;;10.60;88.90;;;;;;5071802;28;20020;-38
2024/01/30 09:07:13;;;;;;;8.98;4.70;;;10.60;88.80;;;;;;5071502;28;20413;-34
2024/01/30 09:09:40;;;;;;;10.27;5.20;;;10.60;88.80;;;;;;5072047;28;20047;-38
2024/01/30 09:12:09;;;;;;;6.82;5.43;;;10.70;88.80;;;;;;5072100;28;20028;-38
2024/01/30 09:14:38;;;;;;;6.90;5.47;;;10.70;88.80;;;;;;5071819;28;20445;-35
2024/01/30 09:17:04;;;;;;;7.30;5.38;;;10.70;88.80;;;;;;5071987;28;20505;-35
2024/01/30 09:19:30;;;;;;;10.80;5.53;;;10.80;88.70;;;;;;5071985;28;20059;-34
2024/01/30 09:21:56;;;;;;;8.40;5.38;;;10.80;88.70;;;;;;5071676;28;20078;-36
2024/01/30 09:24:21;;;;;;;8.27;5.50;;;10.80;88.60;;;;;;5071725;28;20032;-35
2024/01/30 09:26:47;;;;;;;6.95;5.57;;;10.90;88.60;;;;;;5071610;28;20063;-33
2024/01/30 09:29:13;;;;;;;7.70;5.53;;;10.90;88.60;;;;;;5071919;28;20427;-31
2024/01/30 09:31:38;;;;;;;8.90;6.03;;;10.90;88.60;;;;;;5070361;28;20073;-37
2024/01/30 09:34:04;;;;;;;8.00;5.40;;;10.90;88.60;;;;;;5071543;28;20079;-36
2024/01/30 09:36:30;;;;;;;9.25;5.38;;;11.00;88.60;;;;;;5070231;28;20052;-46
2024/01/30 09:38:55;;;;;;;7.30;5.20;;;11.00;88.60;;;;;;5071638;28;20037;-35
2024/01/30 09:41:23;;;;;;;9.30;5.32;;;11.00;88.50;;;;;;5071790;28;20104;-35
2024/01/30 09:43:50;;;;;;;8.73;5.50;;;11.00;88.50;;;;;;5071228;28;20158;-37
2024/01/30 09:46:20;;;;;;;7.05;5.47;;;11.00;88.50;;;;;;5071231;28;20121;-38
2024/01/30 09:48:49;;;;;;;8.05;5.65;;;11.00;88.40;;;;;;5071320;28;20064;-32
2024/01/30 09:51:16;;;;;;;8.27;5.53;;;11.00;88.40;;;;;;5071713;28;20028;-35
2024/01/30 09:53:44;;;;;;;9.60;5.90;;;11.10;88.40;;;;;;5071482;28;20568;-35
2024/01/30 09:56:11;;;;;;;12.48;6.05;;;11.10;88.40;;;;;;5071284;28;20028;-34
2024/01/30 09:58:36;;;;;;;7.47;5.38;;;11.10;88.40;;;;;;5071229;28;20104;-36
2024/01/30 10:01:02;;;;;;;7.50;5.53;;;11.10;88.40;;;;;;5071527;28;20101;-35
2024/01/30 10:03:28;;;;;;;7.28;5.18;;;11.10;88.40;;;;;;5071316;28;20036;-36
2024/01/30 10:05:55;;;;;;;7.88;5.35;;;11.10;88.40;;;;;;5070937;28;20358;-34
2024/01/30 10:08:21;;;;;;;9.68;5.70;;;11.10;88.50;;;;;;5071167;28;20037;-35
2024/01/30 10:10:47;;;;;;;9.18;5.40;;;11.20;88.50;;;;;;5071201;28;20071;-38
2024/01/30 10:13:13;;;;;;;7.72;5.38;;;11.20;88.50;;;;;;5071059;28;20484;-33
2024/01/30 10:15:40;;;;;;;8.07;5.65;;;11.30;88.50;;;;;;5071121;28;20094;-37
2024/01/30 10:18:06;;;;;;;8.30;5.35;;;11.30;88.50;;;;;;5071219;28;20389;-33
2024/01/30 10:20:32;;;;;;;10.18;5.80;;;11.40;88.50;;;;;;5074489;28;20485;-30
2024/01/30 10:22:58;;;;;;;7.93;5.20;;;11.40;88.40;;;;;;5074837;28;20082;-32
2024/01/30 10:25:26;;;;;;;10.02;5.78;;;11.40;88.30;;;;;;5074716;28;20032;-30
2024/01/30 10:27:58;;;;;;;7.40;5.43;;;11.40;88.30;;;;;;5074684;28;20059;-34
2024/01/30 10:30:24;;;;;;;8.02;5.43;;;11.40;88.30;;;;;;5075351;28;20088;-31
2024/01/30 10:32:50;;;;;;;10.10;5.90;;;11.50;88.30;;;;;;5074847;28;20036;-36
2024/01/30 10:35:16;;;;;;;10.48;5.85;;;11.50;88.40;;;;;;5074952;28;20083;-35
2024/01/30 10:37:47;;;;;;;8.88;5.93;;;11.40;88.40;;;;;;5074813;28;20060;-37
2024/01/30 10:40:14;;;;;;;8.80;6.10;;;11.50;88.40;;;;;;5073286;28;20127;-40
2024/01/30 10:42:43;;;;;;;9.27;5.65;;;11.50;88.40;;;;;;5074327;28;20221;-37
2024/01/30 10:45:14;;;;;;;8.10;5.93;;;11.50;88.40;;;;;;5074459;28;20367;-36
2024/01/30 10:47:43;;;;;;;9.15;5.50;;;11.60;88.50;;;;;;5074550;28;20485;-38
2024/01/30 10:50:10;;;;;;;8.80;5.95;;;11.50;88.40;;;;;;5074772;28;20021;-37
2024/01/30 10:52:36;;;;;;;10.75;6.28;;;11.60;88.50;;;;;;5074563;28;20024;-38
2024/01/30 10:55:05;;;;;;;8.63;5.40;;;11.60;88.40;;;;;;5074337;28;20037;-38
2024/01/30 10:57:37;;;;;;;9.82;6.15;;;11.60;88.40;;;;;;5074261;28;20056;-36
2024/01/30 11:00:09;;;;;;;7.82;5.90;;;11.60;88.30;;;;;;5074546;28;20035;-37
2024/01/30 11:02:37;;;;;;;8.50;6.05;;;11.70;88.40;;;;;;5074160;28;20028;-33
2024/01/30 11:05:05;;;;;;;7.15;5.43;;;11.70;88.30;;;;;;5074178;28;20028;-39
2024/01/30 11:07:30;;;;;;;9.68;5.82;;;11.70;88.60;;;;;;5072765;28;20481;-37
2024/01/30 11:10:04;;;;;;;7.93;5.57;;;11.80;88.20;;;;;;5074136;28;20081;-34
2024/01/30 11:12:33;;;;;;;7.97;5.75;;;11.80;88.20;;;;;;5074285;28;20477;-37
2024/01/30 11:15:17;;;;;;;8.63;5.25;;;11.80;88.20;;;;;;5073909;28;20063;-36
2024/01/30 11:17:45;;;;;;;7.53;5.30;;;11.90;88.20;;;;;;5073817;28;20043;-35
2024/01/30 11:20:32;;;;;;;9.38;6.00;;;12.00;88.20;;;;;;5074228;28;20025;-37
2024/01/30 11:22:58;;;;;;;8.45;5.70;;;12.10;88.00;;;;;;5073738;28;20059;-35
2024/01/30 11:25:25;;;;;;;8.68;5.80;;;12.10;87.90;;;;;;5073758;28;20033;-37
2024/01/30 11:27:53;;;;;;;10.77;5.93;;;12.20;87.90;;;;;;5073746;28;20029;-37
2024/01/30 11:30:26;;;;;;;10.07;6.00;;;12.20;87.70;;;;;;5073385;28;20025;-35
2024/01/30 11:33:04;;;;;;;9.35;5.07;;;12.30;87.70;;;;;;5072134;28;20056;-37
2024/01/30 11:35:34;;;;;;;9.40;5.32;;;12.30;87.70;;;;;;5073507;28;20060;-36
2024/01/30 11:38:01;;;;;;;10.65;6.22;;;12.30;87.70;;;;;;5073883;28;20107;-34
2024/01/30 11:40:28;;;;;;;8.45;5.60;;;12.20;87.60;;;;;;5073499;28;20492;-34
2024/01/30 11:42:56;;;;;;;11.77;5.68;;;12.20;87.60;;;;;;5073613;28;20507;-38
2024/01/30 11:45:21;;;;;;;11.48;5.93;;;12.30;87.60;;;;;;5073556;28;20062;-36
2024/01/30 11:47:47;;;;;;;9.45;6.70;;;12.30;87.60;;;;;;5071845;28;20400;-35
2024/01/30 11:50:13;;;;;;;10.02;5.97;;;12.30;87.50;;;;;;5073425;28;20024;-35
2024/01/30 11:52:39;;;;;;;10.13;5.75;;;12.30;87.20;;;;;;5073398;28;20431;-37
2024/01/30 11:55:06;;;;;;;11.10;5.65;;;12.40;87.20;;;;;;5073287;28;20082;-36
2024/01/30 11:57:31;;;;;;;8.25;6.15;;;12.50;87.10;;;;;;5073271;28;20029;-38
2024/01/30 11:59:57;;;;;;;9.27;6.40;;;12.50;86.80;;;;;;5073431;28;20020;-36
2024/01/30 12:02:22;;;;;;;9.55;6.07;;;12.60;86.50;;;;;;5073095;28;20029;-37
2024/01/30 12:04:48;;;;;;;8.68;6.00;;;12.60;86.30;;;;;;5073050;28;20441;-37
2024/01/30 12:07:17;;;;;;;11.10;6.15;;;12.70;86.20;;;;;;5072958;28;20028;-35
2024/01/30 12:09:51;;;;;;;7.95;5.60;;;12.70;86.70;;;;;;5072843;28;20070;-38
2024/01/30 12:12:17;;;;;;;8.85;5.95;;;12.70;86.10;;;;;;5072857;28;20103;-39
2024/01/30 12:14:42;;;;;;;9.95;6.30;;;12.60;86.00;;;;;;5072730;28;20108;-35
2024/01/30 12:17:09;;;;;;;8.50;5.53;;;12.60;85.70;;;;;;5072630;28;20477;-37
2024/01/30 12:19:34;;;;;;;6.75;5.30;;;12.60;85.90;;;;;;5072571;28;20078;-36
2024/01/30 12:22:00;;;;;;;7.85;5.97;;;12.60;85.90;;;;;;5072944;28;20029;-35
2024/01/30 12:24:27;;;;;;;7.85;5.32;;;12.60;85.60;;;;;;5072724;28;20447;-38
2024/01/30 12:26:56;;;;;;;10.07;5.45;;;12.60;85.60;;;;;;5072510;28;20028;-35
2024/01/30 12:29:22;;;;;;;8.40;5.53;;;12.60;85.40;;;;;;5072554;28;20051;-33
2024/01/30 12:31:47;;;;;;;8.50;5.50;;;12.60;85.40;;;;;;5072772;28;20491;-36
2024/01/30 12:34:17;;;;;;;7.40;5.00;;;12.70;85.30;;;;;;5072100;28;20462;-34
2024/01/30 12:36:43;;;;;;;8.13;5.60;;;12.80;85.10;;;;;;5072646;28;20033;-34
2024/01/30 12:39:13;;;;;;;8.73;5.22;;;12.80;84.70;;;;;;5072567;28;20055;-38
2024/01/30 12:41:38;;;;;;;7.63;5.45;;;12.80;84.40;;;;;;5071459;28;20062;-36
2024/01/30 12:44:04;;;;;;;8.40;4.30;;;12.90;83.30;;;;;;5070667;28;20029;-37
2024/01/30 12:46:30;;;;;;;7.28;3.80;;;12.80;81.60;;;;;;5072167;28;20088;-37